createdAt,value
2022-09-28T00:02:00.814Z,13.10
2022-09-28T00:04:31.515Z,13.10
2022-09-28T00:07:00.518Z,13.00
2022-09-28T00:18:18.933Z,13.00
2022-09-28T00:20:49.639Z,13.00
2022-09-28T00:23:18.439Z,12.90
2022-09-28T00:25:47.421Z,13.00
2022-09-28T00:28:16.478Z,13.00
2022-09-28T00:30:45.367Z,13.00
2022-09-28T00:33:14.339Z,13.00
2022-09-28T00:35:44.035Z,13.00
2022-09-28T00:38:17.004Z,12.90
2022-09-28T00:40:46.030Z,12.90
2022-09-28T00:43:20.174Z,12.90
2022-09-28T00:45:52.947Z,12.90
2022-09-28T00:48:22.054Z,12.90
2022-09-28T00:50:52.167Z,12.90
2022-09-28T00:53:26.042Z,12.90
2022-09-28T00:55:59.850Z,12.90
2022-09-28T00:58:33.719Z,12.90
2022-09-28T01:01:02.661Z,12.90
2022-09-28T01:03:32.000Z,12.90
2022-09-28T01:06:05.779Z,13.00
2022-09-28T01:08:37.718Z,12.90
2022-09-28T01:11:06.948Z,13.00
2022-09-28T01:13:36.145Z,12.90
2022-09-28T01:16:14.185Z,12.90
2022-09-28T01:18:54.498Z,12.80
2022-09-28T01:21:26.437Z,12.90
2022-09-28T01:24:39.694Z,13.00
2022-09-28T01:27:15.178Z,12.90
2022-09-28T01:29:56.558Z,12.90
2022-09-28T01:32:39.959Z,13.00
2022-09-28T01:35:11.766Z,12.90
2022-09-28T01:37:48.678Z,12.80
2022-09-28T01:40:18.627Z,12.80
2022-09-28T01:42:52.235Z,12.80
2022-09-28T01:45:25.627Z,12.80
2022-09-28T01:47:58.396Z,12.70
2022-09-28T01:50:30.557Z,12.70
2022-09-28T01:53:04.694Z,12.70
2022-09-28T01:55:38.820Z,12.70
2022-09-28T01:58:14.064Z,12.70
2022-09-28T02:00:48.443Z,12.70
2022-09-28T02:03:20.389Z,12.70
2022-09-28T02:05:52.565Z,12.60
2022-09-28T02:08:27.459Z,12.60
2022-09-28T02:13:33.678Z,12.70
2022-09-28T02:16:07.477Z,12.70
2022-09-28T02:18:38.246Z,12.60
2022-09-28T02:21:12.519Z,12.60
2022-09-28T02:23:45.058Z,12.60
2022-09-28T02:26:18.338Z,12.60
2022-09-28T02:28:48.797Z,12.70
2022-09-28T02:31:17.886Z,12.70
2022-09-28T02:33:47.986Z,12.70
2022-09-28T02:36:17.035Z,12.80
2022-09-28T02:38:46.098Z,12.70
2022-09-28T02:41:26.425Z,12.70
2022-09-28T02:44:05.400Z,12.70
2022-09-28T02:46:43.045Z,12.70
2022-09-28T02:49:22.623Z,12.70
2022-09-28T02:52:04.866Z,12.80
2022-09-28T02:54:54.197Z,12.70
2022-09-28T02:57:36.669Z,12.80
2022-09-28T03:00:10.541Z,12.80
2022-09-28T03:02:47.139Z,12.80
2022-09-28T03:05:20.500Z,12.80
2022-09-28T03:07:59.385Z,12.80
2022-09-28T03:10:38.820Z,12.70
2022-09-28T03:13:09.194Z,12.70
2022-09-28T03:15:41.947Z,12.70
2022-09-28T03:18:12.263Z,12.70
2022-09-28T03:20:41.178Z,12.70
2022-09-28T03:23:24.410Z,12.70
2022-09-28T03:25:54.803Z,12.70
2022-09-28T03:28:23.699Z,12.70
2022-09-28T03:30:54.266Z,12.70
2022-09-28T03:33:23.158Z,12.70
2022-09-28T03:35:52.687Z,12.60
2022-09-28T03:38:22.590Z,12.60
2022-09-28T03:40:56.180Z,12.70
2022-09-28T03:43:26.007Z,12.70
2022-09-28T03:45:58.032Z,12.80
2022-09-28T03:48:32.057Z,12.80
2022-09-28T03:51:03.119Z,12.80
2022-09-28T03:53:32.077Z,12.70
2022-09-28T03:56:05.118Z,12.70
2022-09-28T03:58:34.147Z,12.70
2022-09-28T04:01:16.544Z,12.70
2022-09-28T04:03:46.774Z,12.60
2022-09-28T04:06:16.338Z,12.70
2022-09-28T04:08:45.343Z,12.70
2022-09-28T04:11:14.275Z,12.60
2022-09-28T04:13:43.480Z,12.60
2022-09-28T04:16:13.877Z,12.60
2022-09-28T04:18:42.910Z,12.70
2022-09-28T04:21:14.028Z,12.70
2022-09-28T04:23:43.599Z,12.70
2022-09-28T04:26:17.910Z,12.80
2022-09-28T04:29:06.726Z,12.60
2022-09-28T04:31:42.936Z,12.70
2022-09-28T04:34:12.359Z,12.70
2022-09-28T04:36:41.215Z,12.70
2022-09-28T04:39:10.426Z,12.80
2022-09-28T04:41:39.546Z,12.80
2022-09-28T04:44:08.749Z,12.80
2022-09-28T04:46:37.985Z,12.80
2022-09-28T04:49:10.026Z,12.80
2022-09-28T04:51:39.121Z,12.80
2022-09-28T04:54:07.977Z,12.80
2022-09-28T04:56:37.003Z,12.80
2022-09-28T04:59:06.120Z,12.80
2022-09-28T05:01:35.122Z,12.80
2022-09-28T05:04:04.299Z,12.80
2022-09-28T05:06:34.667Z,12.80
2022-09-28T05:09:03.573Z,12.80
2022-09-28T05:11:32.517Z,12.70
2022-09-28T05:14:01.439Z,12.80
2022-09-28T05:16:31.266Z,12.80
2022-09-28T05:19:00.119Z,12.80
2022-09-28T05:21:30.414Z,12.90
2022-09-28T05:24:00.810Z,12.90
2022-09-28T05:26:29.782Z,12.90
2022-09-28T05:28:58.761Z,13.00
2022-09-28T05:31:28.688Z,12.90
2022-09-28T05:33:57.738Z,13.00
2022-09-28T05:36:28.150Z,12.90
2022-09-28T05:38:57.118Z,13.00
2022-09-28T05:41:27.602Z,13.00
2022-09-28T05:43:56.805Z,13.00
2022-09-28T05:46:25.877Z,13.10
2022-09-28T05:48:55.458Z,13.10
2022-09-28T05:51:25.058Z,13.10
2022-09-28T05:53:56.535Z,13.00
2022-09-28T05:56:27.066Z,13.00
2022-09-28T05:58:56.486Z,13.00
2022-09-28T06:01:25.619Z,13.00
2022-09-28T06:03:54.626Z,13.00
2022-09-28T06:06:23.649Z,13.00
2022-09-28T06:08:52.606Z,13.00
2022-09-28T06:11:21.481Z,13.00
2022-09-28T06:13:55.380Z,13.10
2022-09-28T06:16:24.519Z,12.90
2022-09-28T06:18:56.503Z,13.00
2022-09-28T06:21:25.520Z,12.90
2022-09-28T06:23:54.495Z,12.90
2022-09-28T06:26:23.395Z,12.80
2022-09-28T06:28:53.758Z,12.90
2022-09-28T06:31:24.088Z,13.00
2022-09-28T06:33:53.499Z,12.90
2022-09-28T06:36:22.548Z,12.90
2022-09-28T06:38:51.546Z,12.80
2022-09-28T06:41:20.526Z,12.90
2022-09-28T06:43:50.138Z,13.00
2022-09-28T06:46:21.308Z,13.00
2022-09-28T06:48:50.506Z,12.90
2022-09-28T06:51:19.438Z,13.00
2022-09-28T06:53:48.479Z,13.00
2022-09-28T06:56:18.277Z,13.00
2022-09-28T06:58:47.187Z,13.00
2022-09-28T07:01:16.346Z,12.90
2022-09-28T07:03:46.765Z,12.90
2022-09-28T07:06:15.826Z,12.80
2022-09-28T07:08:52.398Z,12.90
2022-09-28T07:11:34.678Z,12.70
2022-09-28T07:14:03.609Z,12.50
2022-09-28T07:17:01.294Z,12.10
2022-09-28T07:19:26.679Z,12.00
2022-09-28T07:22:03.822Z,12.00
2022-09-28T07:24:33.942Z,11.80
2022-09-28T07:27:05.530Z,11.60
2022-09-28T07:29:34.786Z,11.40
2022-09-28T07:32:04.001Z,11.40
2022-09-28T07:34:38.341Z,11.40
2022-09-28T07:37:07.393Z,11.40
2022-09-28T07:39:56.788Z,11.40
2022-09-28T07:42:25.540Z,11.40
2022-09-28T07:44:54.845Z,11.40
2022-09-28T07:47:32.294Z,11.40
2022-09-28T07:50:05.467Z,11.40
2022-09-28T07:52:35.458Z,11.40
2022-09-28T07:55:07.266Z,11.40
2022-09-28T07:57:36.561Z,11.40
2022-09-28T08:00:08.053Z,11.50
2022-09-28T08:02:37.166Z,11.50
2022-09-28T08:05:10.260Z,11.50
2022-09-28T08:07:39.834Z,11.50
2022-09-28T08:10:09.478Z,11.50
2022-09-28T08:12:41.214Z,11.60
2022-09-28T08:15:11.586Z,11.70
2022-09-28T08:17:40.838Z,11.80
2022-09-28T08:20:28.994Z,11.70
2022-09-28T08:22:58.545Z,11.60
2022-09-28T08:25:27.468Z,11.80
2022-09-28T08:27:57.711Z,11.80
2022-09-28T08:30:27.109Z,11.90
2022-09-28T08:32:56.138Z,12.00
2022-09-28T08:35:26.747Z,12.10
2022-09-28T08:37:55.868Z,12.20
2022-09-28T08:40:26.754Z,12.20
2022-09-28T08:42:59.098Z,12.20
2022-09-28T08:45:30.340Z,12.40
2022-09-28T08:48:23.418Z,12.50
2022-09-28T08:50:57.973Z,12.60
2022-09-28T08:53:36.988Z,12.70
2022-09-28T08:56:09.606Z,12.80
2022-09-28T08:58:42.436Z,12.80
2022-09-28T09:01:16.947Z,12.90
2022-09-28T09:03:46.962Z,12.90
2022-09-28T09:06:27.830Z,13.00
2022-09-28T09:09:04.638Z,13.10
2022-09-28T09:11:56.608Z,13.20
2022-09-28T09:14:43.715Z,13.30
2022-09-28T09:17:24.318Z,13.30
2022-09-28T09:19:55.950Z,13.40
2022-09-28T09:22:39.048Z,13.20
2022-09-28T09:25:18.759Z,13.10
2022-09-28T09:28:02.667Z,13.10
2022-09-28T09:30:39.984Z,13.30
2022-09-28T09:33:31.855Z,13.30
2022-09-28T09:36:14.986Z,13.30
2022-09-28T09:38:52.940Z,13.40
2022-09-28T09:41:35.671Z,13.50
2022-09-28T09:44:33.139Z,13.40
2022-09-28T09:47:08.369Z,13.10
2022-09-28T09:49:42.046Z,13.10
2022-09-28T09:52:20.575Z,13.10
2022-09-28T09:54:56.187Z,13.20
2022-09-28T09:57:29.478Z,13.30
2022-09-28T10:00:00.452Z,13.40
2022-09-28T10:02:31.329Z,13.50
2022-09-28T10:05:03.847Z,13.60
2022-09-28T10:07:43.301Z,13.70
2022-09-28T10:10:21.867Z,13.80
2022-09-28T10:12:52.592Z,14.00
2022-09-28T10:15:25.618Z,14.10
2022-09-28T10:17:56.188Z,14.00
2022-09-28T10:20:26.138Z,14.10
2022-09-28T10:22:58.838Z,14.10
2022-09-28T10:25:29.848Z,14.40
2022-09-28T10:28:01.358Z,14.40
2022-09-28T10:30:30.498Z,14.70
2022-09-28T10:33:01.671Z,14.90
2022-09-28T10:35:41.419Z,14.90
2022-09-28T10:38:18.824Z,15.30
2022-09-28T10:40:51.144Z,15.40
2022-09-28T10:43:24.502Z,15.80
2022-09-28T10:46:03.485Z,16.10
2022-09-28T10:48:47.748Z,16.10
2022-09-28T10:51:17.077Z,16.00
2022-09-28T10:54:01.770Z,16.10
2022-09-28T10:56:38.938Z,16.20
2022-09-28T10:59:25.651Z,16.10
2022-09-28T11:01:57.486Z,16.30
2022-09-28T11:04:30.208Z,16.50
2022-09-28T11:07:01.580Z,16.70
2022-09-28T11:09:32.630Z,16.90
2022-09-28T11:12:06.347Z,17.20
2022-09-28T11:14:41.301Z,17.60
2022-09-28T11:17:19.740Z,18.00
2022-09-28T11:19:48.666Z,18.10
2022-09-28T11:22:30.568Z,17.70
2022-09-28T11:25:20.788Z,17.20
2022-09-28T11:28:01.485Z,17.00
2022-09-28T11:30:34.463Z,16.70
2022-09-28T11:33:06.578Z,16.70
2022-09-28T11:35:47.840Z,16.50
2022-09-28T11:38:35.301Z,16.10
2022-09-28T11:41:25.270Z,16.30
2022-09-28T11:44:32.674Z,16.50
2022-09-28T11:47:17.061Z,16.30
2022-09-28T11:49:52.690Z,16.30
2022-09-28T11:52:29.038Z,16.40
2022-09-28T11:55:02.750Z,16.50
2022-09-28T11:57:38.618Z,16.60
2022-09-28T12:00:15.979Z,16.50
2022-09-28T12:02:50.856Z,16.10
2022-09-28T12:05:24.367Z,16.00
2022-09-28T12:07:57.861Z,15.70
2022-09-28T12:10:38.130Z,15.70
2022-09-28T12:13:13.714Z,15.80
2022-09-28T12:16:20.018Z,16.30
2022-09-28T12:18:54.893Z,16.40
2022-09-28T12:21:34.412Z,16.50
2022-09-28T12:24:09.263Z,17.00
2022-09-28T12:26:45.713Z,17.10
2022-09-28T12:29:17.911Z,17.00
2022-09-28T12:31:57.639Z,16.50
2022-09-28T12:34:26.789Z,16.10
2022-09-28T12:37:12.358Z,15.80
2022-09-28T12:39:58.642Z,15.50
2022-09-28T12:42:44.494Z,15.30
2022-09-28T12:45:59.485Z,14.90
2022-09-28T12:49:43.667Z,15.00
2022-09-28T12:51:52.586Z,15.00
2022-09-28T12:54:53.595Z,14.80
2022-09-28T12:57:51.213Z,14.80
2022-09-28T13:00:23.448Z,15.00
2022-09-28T13:03:15.828Z,15.20
2022-09-28T13:06:06.329Z,15.50
2022-09-28T13:08:43.096Z,15.80
2022-09-28T13:11:19.558Z,15.50
2022-09-28T13:13:58.338Z,15.40
2022-09-28T13:16:33.055Z,15.20
2022-09-28T13:19:09.207Z,15.10
2022-09-28T13:21:46.867Z,15.00
2022-09-28T13:24:32.635Z,15.00
2022-09-28T13:27:08.981Z,15.40
2022-09-28T13:32:15.566Z,15.80
2022-09-28T13:34:48.814Z,16.10
2022-09-28T13:37:25.886Z,16.10
2022-09-28T13:39:56.867Z,15.90
2022-09-28T13:42:51.402Z,16.10
2022-09-28T13:45:33.018Z,15.90
2022-09-28T13:48:24.775Z,15.70
2022-09-28T13:51:19.298Z,15.90
2022-09-28T13:54:12.134Z,16.10
2022-09-28T13:56:51.408Z,16.10
2022-09-28T13:59:27.524Z,16.00
2022-09-28T14:02:06.841Z,15.50
2022-09-28T14:04:55.417Z,15.10
2022-09-28T14:10:41.895Z,14.30
2022-09-28T14:13:12.559Z,14.30
2022-09-28T14:15:47.156Z,14.30
2022-09-28T14:18:28.207Z,14.50
2022-09-28T14:21:21.459Z,14.60
2022-09-28T14:24:05.855Z,14.40
2022-09-28T14:27:09.026Z,14.30
2022-09-28T14:29:40.766Z,14.10
2022-09-28T14:32:25.173Z,13.80
2022-09-28T14:35:04.958Z,13.70
2022-09-28T14:37:53.887Z,13.70
2022-09-28T14:40:48.715Z,13.60
2022-09-28T14:43:25.815Z,13.80
2022-09-28T14:46:30.022Z,14.00
2022-09-28T14:49:02.089Z,14.30
2022-09-28T14:52:07.442Z,14.40
2022-09-28T14:54:55.041Z,14.30
2022-09-28T14:57:27.581Z,13.90
2022-09-28T15:00:00.598Z,13.80
2022-09-28T15:02:34.133Z,13.60
2022-09-28T15:05:15.619Z,13.50
2022-09-28T15:07:47.818Z,13.50
2022-09-28T15:10:34.350Z,13.30
2022-09-28T15:13:05.646Z,13.30
2022-09-28T15:15:37.356Z,13.20
2022-09-28T15:18:35.783Z,13.00
2022-09-28T15:21:06.499Z,12.90
2022-09-28T15:23:37.927Z,12.80
2022-09-28T15:26:08.759Z,12.70
2022-09-28T15:28:39.660Z,12.60
2022-09-28T15:31:08.531Z,12.70
2022-09-28T15:33:54.841Z,12.70
2022-09-28T15:36:30.357Z,12.70
2022-09-28T15:39:02.548Z,12.60
2022-09-28T15:41:31.790Z,12.50
2022-09-28T15:44:27.482Z,12.30
2022-09-28T15:47:07.926Z,12.20
2022-09-28T15:49:41.458Z,12.00
2022-09-28T15:52:25.356Z,11.90
2022-09-28T15:54:54.583Z,11.80
2022-09-28T15:57:37.241Z,11.60
2022-09-28T16:00:09.227Z,11.40
2022-09-28T16:02:38.310Z,11.20
2022-09-28T16:05:36.070Z,11.00
2022-09-28T16:08:07.387Z,10.90
2022-09-28T16:10:37.900Z,10.70
2022-09-28T16:13:16.012Z,10.60
2022-09-28T16:15:45.345Z,10.40
2022-09-28T16:18:21.218Z,10.40
2022-09-28T16:20:52.599Z,10.20
2022-09-28T16:23:27.758Z,10.20
2022-09-28T16:26:00.498Z,10.20
2022-09-28T16:28:53.246Z,10.10
2022-09-28T16:31:35.064Z,10.00
2022-09-28T16:34:21.454Z,9.80
2022-09-28T16:36:51.975Z,9.70
2022-09-28T16:39:22.496Z,9.60
2022-09-28T16:41:55.727Z,9.50
2022-09-28T16:44:28.982Z,9.40
2022-09-28T16:47:00.499Z,9.30
2022-09-28T16:49:32.598Z,9.30
2022-09-28T16:52:02.203Z,9.20
2022-09-28T16:55:17.699Z,9.10
2022-09-28T16:57:53.467Z,9.00
2022-09-28T17:00:24.288Z,9.00
2022-09-28T17:02:54.147Z,8.90
2022-09-28T17:05:23.430Z,8.80
2022-09-28T17:08:01.046Z,8.80
2022-09-28T17:10:55.760Z,8.70
2022-09-28T17:13:33.635Z,8.60
2022-09-28T17:16:04.711Z,8.60
2022-09-28T17:18:33.697Z,8.50
2022-09-28T17:21:05.727Z,8.40
2022-09-28T17:23:35.065Z,8.40
2022-09-28T17:26:07.144Z,8.30
2022-09-28T17:28:37.985Z,8.30
2022-09-28T17:31:11.703Z,8.20
2022-09-28T17:33:40.658Z,8.10
2022-09-28T17:36:14.991Z,8.10
2022-09-28T17:38:44.458Z,8.10
2022-09-28T17:41:20.174Z,8.00
2022-09-28T17:43:49.778Z,8.00
2022-09-28T17:46:27.622Z,7.90
2022-09-28T17:48:57.919Z,7.90
2022-09-28T17:51:26.983Z,7.80
2022-09-28T17:53:56.389Z,7.80
2022-09-28T17:56:31.621Z,7.70
2022-09-28T17:59:03.578Z,7.70
2022-09-28T18:01:34.667Z,7.70
2022-09-28T18:04:05.202Z,7.70
2022-09-28T18:06:34.925Z,7.60
2022-09-28T18:09:04.758Z,7.60
2022-09-28T18:11:35.994Z,7.50
2022-09-28T18:14:09.090Z,7.50
2022-09-28T18:16:40.657Z,7.50
2022-09-28T18:19:09.609Z,7.40
2022-09-28T18:21:38.561Z,7.40
2022-09-28T18:24:07.700Z,7.30
2022-09-28T18:26:39.144Z,7.30
2022-09-28T18:29:08.205Z,7.20
2022-09-28T18:31:38.310Z,7.20
2022-09-28T18:34:07.556Z,7.10
2022-09-28T18:36:36.720Z,7.10
2022-09-28T18:39:06.087Z,7.00
2022-09-28T18:41:38.412Z,6.90
2022-09-28T18:44:08.974Z,6.80
2022-09-28T18:46:39.060Z,6.80
2022-09-28T18:49:08.274Z,6.70
2022-09-28T18:51:37.430Z,6.70
2022-09-28T18:54:08.070Z,6.60
2022-09-28T18:56:38.418Z,6.60
2022-09-28T18:59:21.025Z,6.60
2022-09-28T19:01:50.056Z,6.50
2022-09-28T19:04:20.446Z,6.60
2022-09-28T19:06:52.666Z,6.70
2022-09-28T19:09:23.232Z,6.90
2022-09-28T19:11:52.458Z,7.00
2022-09-28T19:14:22.994Z,7.00
2022-09-28T19:16:51.883Z,6.90
2022-09-28T19:19:22.082Z,6.80
2022-09-28T19:21:51.207Z,6.80
2022-09-28T19:24:21.214Z,6.90
2022-09-28T19:26:53.734Z,7.00
2022-09-28T19:29:24.467Z,7.10
2022-09-28T19:31:53.899Z,7.20
2022-09-28T19:34:24.706Z,7.20
2022-09-28T19:36:53.509Z,7.20
2022-09-28T19:39:22.517Z,7.20
2022-09-28T19:41:51.571Z,7.20
2022-09-28T19:44:25.946Z,7.20
2022-09-28T19:46:56.367Z,7.20
2022-09-28T19:49:26.919Z,7.20
2022-09-28T19:52:14.778Z,7.20
2022-09-28T19:54:45.880Z,7.20
2022-09-28T19:57:16.263Z,7.20
2022-09-28T19:59:50.688Z,7.20
2022-09-28T20:02:21.787Z,7.20
2022-09-28T20:04:51.119Z,7.20
2022-09-28T20:07:19.986Z,7.20
2022-09-28T20:09:48.958Z,7.30
2022-09-28T20:12:17.965Z,7.50
2022-09-28T20:14:48.419Z,7.60
2022-09-28T20:17:17.359Z,7.70
2022-09-28T20:19:46.256Z,7.80
2022-09-28T20:22:16.834Z,7.90
2022-09-28T20:24:45.806Z,8.00
2022-09-28T20:27:14.868Z,8.10
2022-09-28T20:29:43.698Z,8.10
2022-09-28T20:32:14.586Z,8.30
2022-09-28T20:34:43.458Z,8.30
2022-09-28T20:37:14.047Z,8.30
2022-09-28T20:39:44.933Z,8.30
2022-09-28T20:42:15.836Z,8.40
2022-09-28T20:44:45.201Z,8.50
2022-09-28T20:47:15.627Z,8.50
2022-09-28T20:49:44.706Z,8.60
2022-09-28T20:52:13.696Z,8.60
2022-09-28T20:54:42.634Z,8.60
2022-09-28T20:57:18.886Z,8.60
2022-09-28T20:59:53.598Z,8.70
2022-09-28T21:02:25.511Z,8.70
2022-09-28T21:04:54.523Z,8.80
2022-09-28T21:07:23.418Z,8.80
2022-09-28T21:09:53.906Z,8.90
2022-09-28T21:12:23.119Z,8.90
2022-09-28T21:14:52.026Z,8.90
2022-09-28T21:17:21.067Z,9.00
2022-09-28T21:19:51.379Z,9.00
2022-09-28T21:22:20.818Z,9.10
2022-09-28T21:24:49.795Z,9.10
2022-09-28T21:27:18.835Z,9.20
2022-09-28T21:29:47.740Z,9.20
2022-09-28T21:32:16.644Z,9.20
2022-09-28T21:34:45.618Z,9.30
2022-09-28T21:37:16.032Z,9.30
2022-09-28T21:39:45.094Z,9.40
2022-09-28T21:42:14.126Z,9.40
2022-09-28T21:44:43.095Z,9.50
2022-09-28T21:47:12.006Z,9.40
2022-09-28T21:49:41.018Z,9.50
2022-09-28T21:52:09.987Z,9.40
2022-09-28T21:54:42.279Z,9.40
2022-09-28T21:57:11.666Z,9.40
2022-09-28T21:59:40.826Z,9.50
2022-09-28T22:02:10.600Z,9.50
2022-09-28T22:04:39.627Z,9.50
2022-09-28T22:07:08.579Z,9.50
2022-09-28T22:09:37.515Z,9.50
2022-09-28T22:12:08.566Z,9.50
2022-09-28T22:14:37.526Z,9.50
2022-09-28T22:17:06.497Z,9.50
2022-09-28T22:19:35.419Z,9.50
2022-09-28T22:22:04.253Z,9.50
2022-09-28T22:24:33.166Z,9.50
2022-09-28T22:27:02.318Z,9.70
2022-09-28T22:29:32.660Z,9.50
2022-09-28T22:32:02.759Z,9.50
2022-09-28T22:34:32.163Z,9.50
2022-09-28T22:37:02.259Z,9.60
2022-09-28T22:39:34.330Z,9.60
2022-09-28T22:42:06.515Z,9.60
2022-09-28T22:44:38.026Z,9.60
2022-09-28T22:47:06.985Z,9.70
2022-09-28T22:49:35.959Z,9.60
2022-09-28T22:52:04.898Z,9.60
2022-09-28T22:54:33.886Z,9.60
2022-09-28T22:57:02.845Z,9.60
2022-09-28T22:59:31.778Z,9.60
2022-09-28T23:02:02.508Z,9.50
2022-09-28T23:04:32.226Z,9.60
2022-09-28T23:07:01.366Z,9.60
2022-09-28T23:09:30.198Z,9.60
2022-09-28T23:11:59.220Z,9.60
2022-09-28T23:14:29.749Z,9.60
2022-09-28T23:16:58.636Z,9.60
2022-09-28T23:19:28.958Z,9.60
2022-09-28T23:21:59.646Z,9.60
2022-09-28T23:24:28.528Z,9.60
2022-09-28T23:26:57.459Z,9.70
2022-09-28T23:29:26.466Z,9.60
2022-09-28T23:31:55.379Z,9.60
2022-09-28T23:34:24.309Z,9.60
2022-09-28T23:36:56.218Z,9.60
2022-09-28T23:39:25.355Z,9.70
2022-09-28T23:41:54.286Z,9.70
2022-09-28T23:44:23.279Z,9.70
2022-09-28T23:46:52.326Z,9.70
2022-09-28T23:49:21.567Z,9.70
2022-09-28T23:51:50.537Z,9.70
2022-09-28T23:54:21.014Z,9.70
2022-09-28T23:56:49.998Z,9.70
2022-09-28T23:59:19.012Z,9.70
